createdAt,value
2017-06-14T00:00:42.927Z,12.57
2017-06-14T00:01:58.412Z,12.57
2017-06-14T00:03:13.870Z,12.53
2017-06-14T00:04:29.299Z,12.56
2017-06-14T00:05:44.819Z,12.52
2017-06-14T00:06:58.900Z,12.44
2017-06-14T00:08:14.449Z,12.41
2017-06-14T00:09:29.047Z,12.35
2017-06-14T00:10:44.474Z,12.44
2017-06-14T00:11:59.904Z,12.32
2017-06-14T00:13:15.339Z,12.39
2017-06-14T00:14:30.735Z,12.37
2017-06-14T00:15:44.989Z,12.27
2017-06-14T00:17:00.610Z,12.34
2017-06-14T00:18:16.074Z,12.26
2017-06-14T00:19:28.930Z,12.24
2017-06-14T00:20:44.393Z,12.24
2017-06-14T00:21:59.844Z,12.24
2017-06-14T00:23:15.360Z,12.15
2017-06-14T00:24:30.819Z,12.15
2017-06-14T00:25:46.267Z,12.19
2017-06-14T00:27:01.716Z,12.2
2017-06-14T00:28:17.152Z,12.2
2017-06-14T00:29:31.264Z,12.17
2017-06-14T00:30:46.317Z,12.16
2017-06-14T00:32:01.700Z,12.08
2017-06-14T00:33:17.200Z,12.07
2017-06-14T00:34:32.753Z,12.09
2017-06-14T00:35:48.342Z,12.08
2017-06-14T00:37:03.949Z,12.08
2017-06-14T00:38:18.086Z,12.04
2017-06-14T00:39:33.732Z,12.08
2017-06-14T00:40:49.422Z,12.05
2017-06-14T00:42:04.767Z,12.05
2017-06-14T00:43:20.219Z,11.99
2017-06-14T00:44:35.908Z,11.98
2017-06-14T00:45:51.373Z,11.98
2017-06-14T00:47:06.839Z,11.94
2017-06-14T00:48:22.288Z,11.95
2017-06-14T00:49:37.708Z,11.89
2017-06-14T00:50:53.130Z,11.86
2017-06-14T00:52:08.575Z,11.87
2017-06-14T00:53:24.035Z,11.91
2017-06-14T00:54:39.517Z,11.91
2017-06-14T00:55:54.948Z,11.9
2017-06-14T00:57:10.616Z,11.82
2017-06-14T00:58:26.108Z,11.82
2017-06-14T00:59:41.189Z,11.8
2017-06-14T01:00:55.580Z,11.77
2017-06-14T01:02:11.158Z,11.76
2017-06-14T01:03:25.153Z,11.76
2017-06-14T01:04:39.191Z,11.8
2017-06-14T01:05:54.677Z,11.74
2017-06-14T01:07:10.126Z,11.69
2017-06-14T01:08:25.588Z,11.66
2017-06-14T01:09:41.055Z,11.64
2017-06-14T01:10:56.550Z,11.64
2017-06-14T01:12:12.025Z,11.62
2017-06-14T01:13:27.071Z,11.62
2017-06-14T01:14:41.215Z,11.59
2017-06-14T01:15:55.211Z,11.59
2017-06-14T01:17:10.736Z,11.59
2017-06-14T01:18:26.142Z,11.5
2017-06-14T01:19:41.727Z,11.46
2017-06-14T01:20:55.915Z,11.48
2017-06-14T01:22:10.042Z,11.5
2017-06-14T01:23:56.191Z,11.46
2017-06-14T01:25:11.626Z,11.53
2017-06-14T01:26:27.251Z,11.45
2017-06-14T01:27:42.729Z,11.46
2017-06-14T01:28:58.155Z,11.46
2017-06-14T01:30:13.647Z,11.38
2017-06-14T01:31:29.103Z,11.35
2017-06-14T01:32:43.234Z,11.49
2017-06-14T01:33:58.711Z,11.39
2017-06-14T01:35:14.129Z,11.42
2017-06-14T01:36:29.595Z,11.35
2017-06-14T01:37:45.191Z,11.35
2017-06-14T01:38:59.318Z,11.48
2017-06-14T01:40:14.796Z,11.4
2017-06-14T01:41:30.256Z,11.33
2017-06-14T01:42:44.395Z,11.31
2017-06-14T01:43:59.831Z,11.33
2017-06-14T01:45:15.243Z,11.31
2017-06-14T01:46:30.703Z,11.3
2017-06-14T01:47:44.938Z,11.31
2017-06-14T01:49:00.503Z,11.31
2017-06-14T01:50:15.959Z,11.24
2017-06-14T01:51:31.423Z,11.25
2017-06-14T01:53:00.473Z,11.27
2017-06-14T01:54:15.912Z,11.16
2017-06-14T01:55:30.048Z,11.12
2017-06-14T01:56:44.056Z,11.17
2017-06-14T01:57:59.540Z,11.21
2017-06-14T01:59:13.701Z,11.2
2017-06-14T02:00:26.691Z,11.21
2017-06-14T02:01:40.791Z,11.17
2017-06-14T02:02:56.225Z,11.21
2017-06-14T02:04:11.672Z,11.15
2017-06-14T02:05:27.079Z,11.13
2017-06-14T02:06:41.308Z,11.21
2017-06-14T02:07:56.785Z,11.13
2017-06-14T02:09:12.217Z,11.12
2017-06-14T02:10:26.328Z,11.2
2017-06-14T02:11:41.805Z,11.16
2017-06-14T02:12:57.457Z,11.13
2017-06-14T02:14:12.907Z,11.16
2017-06-14T02:15:28.351Z,11.2
2017-06-14T02:16:43.760Z,11.12
2017-06-14T02:17:57.827Z,11.16
2017-06-14T02:19:11.979Z,11.12
2017-06-14T02:20:27.442Z,11.17
2017-06-14T02:21:43.310Z,11.12
2017-06-14T02:22:58.811Z,11.12
2017-06-14T02:24:14.278Z,11.05
2017-06-14T02:25:29.795Z,11.06
2017-06-14T02:26:45.388Z,11.13
2017-06-14T02:28:00.827Z,11.08
2017-06-14T02:29:15.935Z,11.03
2017-06-14T02:30:31.396Z,11.03
2017-06-14T02:31:46.894Z,10.95
2017-06-14T02:33:02.402Z,10.94
2017-06-14T02:34:16.753Z,10.95
2017-06-14T02:35:32.212Z,10.91
2017-06-14T02:36:47.633Z,10.97
2017-06-14T02:38:03.326Z,10.97
2017-06-14T02:39:17.528Z,10.92
2017-06-14T02:40:32.958Z,10.88
2017-06-14T02:41:48.372Z,10.91
2017-06-14T02:43:03.776Z,10.9
2017-06-14T02:44:17.937Z,10.8
2017-06-14T02:45:33.382Z,10.91
2017-06-14T02:46:47.555Z,10.84
2017-06-14T02:48:03.110Z,10.84
2017-06-14T02:49:18.566Z,10.8
2017-06-14T02:50:32.690Z,10.85
2017-06-14T02:51:48.099Z,10.76
2017-06-14T02:53:03.529Z,10.83
2017-06-14T02:54:19.025Z,10.87
2017-06-14T02:55:34.114Z,10.8
2017-06-14T02:56:49.574Z,10.83
2017-06-14T02:58:05.043Z,10.87
2017-06-14T02:59:20.503Z,10.84
2017-06-14T03:00:35.896Z,10.87
2017-06-14T03:01:50.028Z,10.75
2017-06-14T03:03:05.437Z,10.88
2017-06-14T03:04:20.495Z,10.83
2017-06-14T03:05:35.917Z,10.73
2017-06-14T03:06:51.358Z,10.76
2017-06-14T03:08:06.826Z,10.79
2017-06-14T03:09:22.286Z,10.67
2017-06-14T03:10:37.742Z,10.7
2017-06-14T03:11:52.003Z,10.7
2017-06-14T03:13:07.304Z,10.7
2017-06-14T03:14:22.787Z,10.69
2017-06-14T03:17:07.360Z,10.61
2017-06-14T03:18:23.015Z,10.73
2017-06-14T03:19:38.305Z,10.7
2017-06-14T03:20:53.728Z,10.67
2017-06-14T03:22:07.751Z,10.69
2017-06-14T03:23:21.936Z,10.58
2017-06-14T03:24:37.641Z,10.65
2017-06-14T03:25:53.115Z,10.58
2017-06-14T03:27:08.541Z,10.57
2017-06-14T03:28:24.568Z,10.61
2017-06-14T03:29:39.999Z,10.57
2017-06-14T03:30:55.489Z,10.59
2017-06-14T03:32:11.201Z,10.54
2017-06-14T03:33:25.380Z,10.55
2017-06-14T03:34:40.852Z,10.58
2017-06-14T03:35:56.296Z,10.54
2017-06-14T03:37:11.885Z,10.57
2017-06-14T03:38:27.518Z,10.57
2017-06-14T03:39:43.194Z,10.61
2017-06-14T03:40:58.678Z,10.57
2017-06-14T03:42:14.201Z,10.58
2017-06-14T03:43:28.209Z,10.58
2017-06-14T03:44:40.967Z,10.57
2017-06-14T03:45:55.386Z,10.63
2017-06-14T03:47:10.824Z,10.61
2017-06-14T03:48:26.264Z,10.61
2017-06-14T03:49:41.931Z,10.69
2017-06-14T03:50:57.607Z,10.69
2017-06-14T03:52:11.721Z,10.7
2017-06-14T03:53:27.098Z,10.7
2017-06-14T03:54:41.101Z,10.69
2017-06-14T03:55:56.585Z,10.84
2017-06-14T03:57:12.255Z,10.75
2017-06-14T03:58:27.720Z,10.77
2017-06-14T03:59:43.358Z,10.69
2017-06-14T04:00:58.870Z,10.8
2017-06-14T04:02:14.338Z,10.84
2017-06-14T04:03:29.984Z,10.85
2017-06-14T04:04:45.462Z,10.84
2017-06-14T04:06:00.903Z,10.91
2017-06-14T04:07:16.349Z,10.91
2017-06-14T04:08:31.788Z,10.91
2017-06-14T04:09:47.239Z,10.88
2017-06-14T04:11:02.727Z,10.92
2017-06-14T04:12:18.386Z,10.88
2017-06-14T04:13:32.546Z,11.02
2017-06-14T04:14:48.001Z,10.94
2017-06-14T04:16:03.509Z,11
2017-06-14T04:17:18.956Z,11.02
2017-06-14T04:18:34.384Z,11
2017-06-14T04:19:49.819Z,10.98
2017-06-14T04:21:04.925Z,11.06
2017-06-14T04:22:20.582Z,11.16
2017-06-14T04:23:36.048Z,11.21
2017-06-14T04:24:51.457Z,11.25
2017-06-14T04:26:04.339Z,11.16
2017-06-14T04:27:19.782Z,11.28
2017-06-14T04:28:35.387Z,11.3
2017-06-14T04:29:50.806Z,11.43
2017-06-14T04:31:06.690Z,11.4
2017-06-14T04:32:22.108Z,11.4
2017-06-14T04:33:37.563Z,11.45
2017-06-14T04:34:53.025Z,11.46
2017-06-14T04:36:08.536Z,11.49
2017-06-14T04:37:22.686Z,11.49
2017-06-14T04:38:38.151Z,11.61
2017-06-14T04:39:53.334Z,11.62
2017-06-14T04:41:07.471Z,11.62
2017-06-14T04:42:21.596Z,11.76
2017-06-14T04:43:37.023Z,11.71
2017-06-14T04:44:52.460Z,11.86
2017-06-14T04:46:08.135Z,11.87
2017-06-14T04:47:23.599Z,11.91
2017-06-14T04:48:39.074Z,11.87
2017-06-14T04:49:54.588Z,11.98
2017-06-14T04:51:08.336Z,12.05
2017-06-14T04:52:23.812Z,12.05
2017-06-14T04:53:38.998Z,12.09
2017-06-14T04:54:54.081Z,12.11
2017-06-14T04:56:09.716Z,12.19
2017-06-14T04:57:25.179Z,12.22
2017-06-14T04:58:39.301Z,12.2
2017-06-14T04:59:54.832Z,12.31
2017-06-14T05:01:10.239Z,12.39
2017-06-14T05:02:25.719Z,12.35
2017-06-14T05:03:41.226Z,12.38
2017-06-14T05:04:55.222Z,12.5
2017-06-14T05:06:10.665Z,12.48
2017-06-14T05:07:26.149Z,12.6
2017-06-14T05:08:41.638Z,12.57
2017-06-14T05:09:57.095Z,12.6
2017-06-14T05:11:12.602Z,12.6
2017-06-14T05:12:26.770Z,12.72
2017-06-14T05:13:40.990Z,12.82
2017-06-14T05:14:56.631Z,12.8
2017-06-14T05:16:12.070Z,12.84
2017-06-14T05:17:27.516Z,12.89
2017-06-14T05:18:42.957Z,12.95
2017-06-14T05:19:58.406Z,13.06
2017-06-14T05:21:13.889Z,13.08
2017-06-14T05:22:29.393Z,13.08
2017-06-14T05:23:44.875Z,13.11
2017-06-14T05:25:00.328Z,13.18
2017-06-14T05:26:15.805Z,13.13
2017-06-14T05:27:31.276Z,13.31
2017-06-14T05:28:46.758Z,13.3
2017-06-14T05:30:00.916Z,13.31
2017-06-14T05:31:16.422Z,13.38
2017-06-14T05:32:30.605Z,13.36
2017-06-14T05:33:46.054Z,13.34
2017-06-14T05:35:15.222Z,13.36
2017-06-14T05:36:30.663Z,13.34
2017-06-14T05:37:46.039Z,13.31
2017-06-14T05:39:01.496Z,13.23
2017-06-14T05:40:16.942Z,13.26
2017-06-14T05:41:32.393Z,13.27
2017-06-14T05:42:47.953Z,13.29
2017-06-14T05:44:02.125Z,13.34
2017-06-14T05:45:17.587Z,13.34
2017-06-14T05:46:33.079Z,13.41
2017-06-14T05:47:48.538Z,13.44
2017-06-14T05:49:02.740Z,13.49
2017-06-14T05:50:18.144Z,13.54
2017-06-14T05:51:33.882Z,13.55
2017-06-14T05:52:49.365Z,13.56
2017-06-14T05:54:04.826Z,13.64
2017-06-14T05:55:20.293Z,13.55
2017-06-14T05:56:35.729Z,13.51
2017-06-14T05:57:51.196Z,13.54
2017-06-14T05:59:06.742Z,13.63
2017-06-14T06:00:22.241Z,13.56
2017-06-14T06:01:37.719Z,13.63
2017-06-14T06:02:51.855Z,13.59
2017-06-14T06:04:07.338Z,13.58
2017-06-14T06:05:22.754Z,13.73
2017-06-14T06:06:36.914Z,13.67
2017-06-14T06:07:52.375Z,13.55
2017-06-14T06:09:07.832Z,13.69
2017-06-14T06:10:23.266Z,13.55
2017-06-14T06:11:37.457Z,13.61
2017-06-14T06:12:53.129Z,13.59
2017-06-14T06:14:07.275Z,13.51
2017-06-14T06:15:22.902Z,13.45
2017-06-14T06:16:38.420Z,13.41
2017-06-14T06:17:53.891Z,13.45
2017-06-14T06:19:09.621Z,13.48
2017-06-14T06:20:25.108Z,13.45
2017-06-14T06:21:40.576Z,13.38
2017-06-14T06:22:56.272Z,13.4
2017-06-14T06:24:11.775Z,13.36
2017-06-14T06:25:27.262Z,13.23
2017-06-14T06:26:42.384Z,13.26
2017-06-14T06:27:56.546Z,13.23
2017-06-14T06:29:11.941Z,13.23
2017-06-14T06:30:27.377Z,13.27
2017-06-14T06:31:40.249Z,13.33
2017-06-14T06:32:55.710Z,13.33
2017-06-14T06:34:09.878Z,13.34
2017-06-14T06:35:25.337Z,13.41
2017-06-14T06:36:39.480Z,13.48
2017-06-14T06:37:54.666Z,13.58
2017-06-14T06:39:10.124Z,13.69
2017-06-14T06:40:24.372Z,13.59
2017-06-14T06:41:39.815Z,13.85
2017-06-14T06:42:55.305Z,14
2017-06-14T06:44:10.734Z,14.13
2017-06-14T06:45:26.189Z,14.25
2017-06-14T06:46:41.661Z,14.34
2017-06-14T06:47:55.762Z,14.48
2017-06-14T06:49:11.225Z,14.54
2017-06-14T06:50:26.664Z,14.66
2017-06-14T06:51:42.297Z,14.63
2017-06-14T06:52:57.790Z,14.81
2017-06-14T06:54:13.408Z,14.91
2017-06-14T06:55:29.012Z,14.96
2017-06-14T06:56:43.117Z,14.99
2017-06-14T06:57:58.548Z,15.09
2017-06-14T06:59:14.009Z,15.23
2017-06-14T07:00:29.705Z,15.17
2017-06-14T07:01:45.101Z,15.33
2017-06-14T07:03:00.557Z,15.27
2017-06-14T07:04:15.993Z,15.21
2017-06-14T07:05:28.820Z,15.25
2017-06-14T07:06:44.223Z,15.27
2017-06-14T07:07:59.695Z,15.27
2017-06-14T07:09:15.201Z,15.23
2017-06-14T07:10:30.709Z,15.23
2017-06-14T07:11:46.158Z,15.24
2017-06-14T07:13:00.354Z,15.24
2017-06-14T07:14:15.809Z,15.06
2017-06-14T07:15:29.841Z,15.03
2017-06-14T07:16:45.319Z,15.09
2017-06-14T07:18:00.761Z,15.13
2017-06-14T07:19:16.230Z,15.11
2017-06-14T07:20:31.718Z,15.08
2017-06-14T07:21:45.892Z,15.09
2017-06-14T07:23:00.088Z,15.06
2017-06-14T07:24:15.728Z,15.09
2017-06-14T07:25:30.834Z,15.17
2017-06-14T07:26:46.269Z,15.09
2017-06-14T07:28:01.778Z,15.13
2017-06-14T07:29:16.894Z,15.06
2017-06-14T07:30:32.423Z,15.05
2017-06-14T07:31:47.878Z,15.2
2017-06-14T07:33:03.354Z,15.21
2017-06-14T07:34:18.806Z,15.24
2017-06-14T07:35:34.251Z,15.25
2017-06-14T07:36:49.746Z,15.35
2017-06-14T07:38:05.183Z,15.46
2017-06-14T07:39:20.629Z,15.5
2017-06-14T07:40:36.113Z,15.54
2017-06-14T07:41:51.594Z,15.48
2017-06-14T07:43:07.055Z,15.39
2017-06-14T07:44:22.599Z,15.33
2017-06-14T07:45:38.095Z,15.21
2017-06-14T07:46:53.519Z,15.21
2017-06-14T07:48:09.011Z,15.25
2017-06-14T07:49:24.460Z,15.13
2017-06-14T07:50:39.909Z,15.05
2017-06-14T07:51:55.605Z,15.03
2017-06-14T07:53:11.039Z,15.06
2017-06-14T07:54:26.501Z,15.03
2017-06-14T07:55:41.949Z,15.13
2017-06-14T07:56:55.948Z,15.25
2017-06-14T07:58:11.414Z,15.21
2017-06-14T07:59:26.873Z,15.15
2017-06-14T08:00:42.332Z,15.13
2017-06-14T08:01:57.762Z,15.2
2017-06-14T08:03:11.968Z,15.25
2017-06-14T08:04:27.531Z,15.23
2017-06-14T08:05:42.980Z,15.25
2017-06-14T08:06:58.456Z,15.24
2017-06-14T08:08:13.778Z,15.27
2017-06-14T08:09:29.277Z,15.45
2017-06-14T08:10:44.728Z,15.57
2017-06-14T08:11:57.394Z,15.64
2017-06-14T08:13:11.578Z,15.76
2017-06-14T08:14:26.690Z,15.88
2017-06-14T08:15:42.173Z,16.01
2017-06-14T08:16:57.679Z,16.04
2017-06-14T08:18:26.572Z,16.07
2017-06-14T08:19:42.021Z,16.09
2017-06-14T08:20:57.704Z,16.14
2017-06-14T08:22:13.204Z,16.07
2017-06-14T08:23:28.665Z,16.09
2017-06-14T08:24:44.109Z,16.14
2017-06-14T08:25:59.583Z,16.2
2017-06-14T08:27:15.227Z,16.09
2017-06-14T08:28:30.705Z,16.17
2017-06-14T08:29:46.139Z,16.31
2017-06-14T08:31:00.483Z,16.31
2017-06-14T08:32:15.931Z,16.47
2017-06-14T08:33:30.008Z,16.49
2017-06-14T08:34:45.644Z,16.69
2017-06-14T08:35:58.555Z,16.93
2017-06-14T08:37:14.030Z,16.99
2017-06-14T08:38:29.472Z,17.02
2017-06-14T08:39:44.917Z,17.06
2017-06-14T08:41:00.347Z,17.23
2017-06-14T08:42:15.996Z,17.2
2017-06-14T08:43:31.452Z,17.21
2017-06-14T08:44:46.941Z,17.21
2017-06-14T08:46:02.374Z,17.16
2017-06-14T08:47:16.627Z,17.23
2017-06-14T08:48:32.057Z,17.39
2017-06-14T08:49:46.212Z,17.58
2017-06-14T08:51:01.730Z,17.8
2017-06-14T08:52:16.052Z,17.73
2017-06-14T08:53:31.545Z,17.83
2017-06-14T08:54:47.018Z,17.94
2017-06-14T08:56:02.645Z,18.01
2017-06-14T08:57:18.303Z,18.25
2017-06-14T08:59:03.273Z,18.82
2017-06-14T09:00:18.871Z,19.6
2017-06-14T09:01:34.330Z,20.38
2017-06-14T09:02:49.590Z,21.12
2017-06-14T09:04:05.307Z,21.97
2017-06-14T09:05:20.780Z,22.63
2017-06-14T09:06:36.240Z,23.17
2017-06-14T09:07:51.911Z,23.58
2017-06-14T09:09:07.349Z,23.91
2017-06-14T09:10:23.015Z,24.31
2017-06-14T09:11:38.482Z,24.76
2017-06-14T09:12:53.940Z,24.9
2017-06-14T09:14:09.428Z,24.29
2017-06-14T09:15:24.889Z,24.15
2017-06-14T09:16:40.285Z,24.25
2017-06-14T09:17:55.974Z,24.4
2017-06-14T09:19:11.654Z,24.53
2017-06-14T09:20:27.118Z,24.76
2017-06-14T09:21:42.585Z,25.05
2017-06-14T09:22:56.738Z,25.22
2017-06-14T09:24:12.237Z,25.44
2017-06-14T09:25:27.685Z,25.78
2017-06-14T09:26:41.836Z,25.94
2017-06-14T09:27:57.326Z,26.22
2017-06-14T09:29:12.779Z,26.52
2017-06-14T09:30:28.358Z,26.77
2017-06-14T09:31:57.396Z,26.67
2017-06-14T09:33:13.136Z,26.61
2017-06-14T09:34:28.590Z,26.39
2017-06-14T09:35:44.094Z,26.34
2017-06-14T09:36:59.621Z,26.37
2017-06-14T09:38:15.113Z,26.31
2017-06-14T09:39:30.615Z,26.4
2017-06-14T09:40:46.232Z,26.55
2017-06-14T09:42:01.747Z,26.64
2017-06-14T09:43:17.295Z,26.56
2017-06-14T09:44:31.531Z,26.34
2017-06-14T09:45:47.060Z,26.21
2017-06-14T09:47:02.530Z,26.07
2017-06-14T09:48:18.162Z,26.18
2017-06-14T09:49:33.622Z,26.36
2017-06-14T09:50:49.239Z,26.25
2017-06-14T09:52:04.704Z,26.24
2017-06-14T09:53:20.213Z,26.34
2017-06-14T09:54:35.751Z,26.4
2017-06-14T09:55:51.196Z,26.4
2017-06-14T09:57:06.733Z,26.43
2017-06-14T09:58:22.397Z,26.52
2017-06-14T09:59:37.883Z,26.51
2017-06-14T10:00:53.376Z,26.56
2017-06-14T10:02:08.755Z,26.61
2017-06-14T10:03:22.946Z,26.75
2017-06-14T10:04:38.417Z,26.89
2017-06-14T10:05:54.079Z,26.89
2017-06-14T10:07:09.594Z,26.74
2017-06-14T10:08:25.091Z,26.82
2017-06-14T10:09:40.601Z,26.82
2017-06-14T10:11:26.979Z,26.93
2017-06-14T10:12:42.665Z,26.83
2017-06-14T10:13:58.154Z,27.05
2017-06-14T10:15:13.592Z,27.1
2017-06-14T10:16:27.894Z,27.2
2017-06-14T10:17:43.382Z,27.17
2017-06-14T10:18:58.845Z,27.24
2017-06-14T10:20:12.994Z,27.23
2017-06-14T10:21:27.147Z,27.34
2017-06-14T10:22:42.685Z,27.33
2017-06-14T10:23:58.174Z,27.26
2017-06-14T10:25:13.812Z,27.3
2017-06-14T10:26:29.294Z,27.31
2017-06-14T10:27:44.829Z,27.34
2017-06-14T10:28:58.991Z,27.28
2017-06-14T10:30:14.457Z,27.37
2017-06-14T10:31:30.113Z,27.3
2017-06-14T10:32:45.612Z,26.95
2017-06-14T10:34:01.074Z,26.71
2017-06-14T10:35:16.550Z,26.55
2017-06-14T10:36:32.023Z,26.3
2017-06-14T10:37:47.559Z,26.33
2017-06-14T10:39:03.080Z,26.27
2017-06-14T10:40:18.589Z,26.31
2017-06-14T10:41:34.081Z,26.39
2017-06-14T10:42:49.577Z,26.61
2017-06-14T10:44:05.073Z,26.82
2017-06-14T10:45:20.535Z,26.9
2017-06-14T10:46:35.982Z,26.99
2017-06-14T10:47:51.475Z,27.17
2017-06-14T10:49:06.977Z,27.31
2017-06-14T10:50:21.035Z,27.33
2017-06-14T10:51:36.501Z,27.43
2017-06-14T10:52:52.022Z,27.6
2017-06-14T10:54:07.501Z,27.6
2017-06-14T10:55:23.189Z,27.27
2017-06-14T10:56:37.374Z,27.05
2017-06-14T10:57:52.874Z,26.92
2017-06-14T10:59:08.545Z,26.93
2017-06-14T11:00:24.410Z,26.98
2017-06-14T11:01:38.676Z,26.86
2017-06-14T11:02:53.822Z,26.67
2017-06-14T11:04:09.373Z,26.37
2017-06-14T11:05:24.941Z,26.34
2017-06-14T11:06:40.457Z,26.36
2017-06-14T11:07:55.981Z,26.37
2017-06-14T11:09:10.178Z,26.4
2017-06-14T11:10:25.671Z,26.43
2017-06-14T11:11:41.133Z,26.73
2017-06-14T11:12:56.611Z,26.82
2017-06-14T11:14:12.092Z,26.86
2017-06-14T11:15:27.563Z,27.01
2017-06-14T11:16:43.018Z,27.1
2017-06-14T11:17:57.229Z,27.08
2017-06-14T11:19:12.789Z,27.12
2017-06-14T11:20:28.237Z,27.07
2017-06-14T11:21:43.907Z,27.11
2017-06-14T11:22:59.445Z,27.31
2017-06-14T11:24:14.927Z,27.37
2017-06-14T11:25:30.366Z,27.35
2017-06-14T11:26:45.837Z,27.27
2017-06-14T11:28:00.012Z,27.3
2017-06-14T11:29:15.568Z,27.27
2017-06-14T11:30:31.006Z,26.99
2017-06-14T11:31:46.580Z,27.04
2017-06-14T11:33:02.100Z,27.05
2017-06-14T11:34:17.601Z,26.99
2017-06-14T11:35:33.122Z,26.86
2017-06-14T11:36:47.167Z,26.71
2017-06-14T11:38:02.653Z,26.56
2017-06-14T11:39:16.809Z,26.52
2017-06-14T11:40:32.282Z,26.51
2017-06-14T11:41:47.736Z,26.51
2017-06-14T11:43:03.462Z,26.61
2017-06-14T11:44:18.967Z,26.7
2017-06-14T11:45:34.498Z,26.93
2017-06-14T11:46:49.972Z,27.01
2017-06-14T11:48:04.023Z,27.08
2017-06-14T11:49:19.529Z,27.2
2017-06-14T11:50:34.980Z,27.2
2017-06-14T11:51:49.141Z,27.33
2017-06-14T11:53:04.620Z,27.41
2017-06-14T11:54:18.789Z,27.46
2017-06-14T11:55:46.137Z,27.39
2017-06-14T11:57:14.610Z,27.5
2017-06-14T11:58:28.695Z,27.42
2017-06-14T11:59:44.180Z,27.41
2017-06-14T12:00:59.880Z,27.42
2017-06-14T12:02:15.509Z,27.37
2017-06-14T12:03:30.975Z,27.43
2017-06-14T12:04:46.582Z,27.34
2017-06-14T12:06:02.090Z,27.34
2017-06-14T12:07:17.632Z,27.26
2017-06-14T12:08:33.206Z,27.14
2017-06-14T12:09:48.677Z,27.11
2017-06-14T12:11:04.130Z,26.99
2017-06-14T12:12:18.319Z,26.99
2017-06-14T12:13:33.816Z,26.92
2017-06-14T12:14:49.302Z,26.93
2017-06-14T12:16:04.816Z,26.85
2017-06-14T12:17:20.378Z,26.78
2017-06-14T12:18:35.854Z,26.77
2017-06-14T12:19:51.385Z,26.67
2017-06-14T12:21:06.988Z,26.45
2017-06-14T12:22:21.388Z,26.25
2017-06-14T12:23:36.920Z,26.18
2017-06-14T12:24:52.407Z,26.31
2017-06-14T12:26:08.107Z,26.25
2017-06-14T12:27:23.633Z,26.22
2017-06-14T12:28:39.125Z,26.18
2017-06-14T12:29:54.686Z,26.02
2017-06-14T12:31:10.104Z,25.76
2017-06-14T12:32:39.405Z,25.59
2017-06-14T12:33:53.477Z,25.43
2017-06-14T12:35:07.651Z,25.42
2017-06-14T12:36:23.155Z,25.36
2017-06-14T12:37:38.676Z,25.28
2017-06-14T12:38:54.130Z,25.28
2017-06-14T12:40:09.581Z,25.21
2017-06-14T12:41:25.449Z,25.12
2017-06-14T12:42:39.600Z,25.02
2017-06-14T12:43:55.345Z,24.73
2017-06-14T12:45:09.547Z,24.54
2017-06-14T12:46:23.845Z,24.29
2017-06-14T12:47:39.356Z,24.1
2017-06-14T12:48:54.952Z,24.02
2017-06-14T12:50:10.579Z,23.87
2017-06-14T12:51:26.272Z,23.76
2017-06-14T12:52:41.780Z,23.85
2017-06-14T12:53:57.304Z,23.72
2017-06-14T12:55:11.123Z,23.65
2017-06-14T12:56:26.612Z,23.68
2017-06-14T12:57:42.417Z,23.63
2017-06-14T12:58:58.206Z,23.61
2017-06-14T13:00:13.853Z,23.72
2017-06-14T13:01:29.375Z,23.76
2017-06-14T13:02:44.833Z,23.68
2017-06-14T13:04:00.504Z,23.69
2017-06-14T13:05:16.020Z,23.72
2017-06-14T13:06:31.453Z,23.69
2017-06-14T13:07:47.366Z,23.69
2017-06-14T13:09:02.848Z,23.61
2017-06-14T13:10:18.547Z,23.65
2017-06-14T13:11:34.073Z,23.54
2017-06-14T13:12:49.748Z,23.57
2017-06-14T13:14:05.227Z,23.48
2017-06-14T13:15:19.357Z,23.36
2017-06-14T13:16:33.392Z,23.32
2017-06-14T13:17:48.868Z,23.25
2017-06-14T13:19:03.220Z,23.32
2017-06-14T13:20:18.765Z,23.32
2017-06-14T13:21:34.260Z,23.28
2017-06-14T13:22:49.941Z,23.32
2017-06-14T13:24:05.629Z,23.36
2017-06-14T13:25:21.361Z,23.38
2017-06-14T13:26:36.771Z,23.38
2017-06-14T13:27:52.375Z,23.39
2017-06-14T13:29:08.030Z,23.42
2017-06-14T13:30:23.644Z,23.39
2017-06-14T13:31:39.117Z,23.38
2017-06-14T13:32:54.712Z,23.32
2017-06-14T13:34:10.165Z,23.13
2017-06-14T13:35:25.696Z,23.18
2017-06-14T13:36:41.210Z,23.11
2017-06-14T13:37:56.760Z,23.13
2017-06-14T13:39:10.938Z,23.05
2017-06-14T13:40:26.500Z,22.96
2017-06-14T13:41:42.034Z,22.95
2017-06-14T13:42:57.960Z,22.98
2017-06-14T13:44:13.496Z,23.03
2017-06-14T13:45:28.681Z,23.02
2017-06-14T13:46:44.182Z,23.17
2017-06-14T13:47:59.624Z,23.09
2017-06-14T13:49:15.268Z,23.02
2017-06-14T13:50:30.839Z,22.99
2017-06-14T13:51:46.317Z,23.05
2017-06-14T13:53:01.802Z,22.99
2017-06-14T13:54:17.691Z,22.96
2017-06-14T13:55:33.237Z,23.01
2017-06-14T13:56:48.722Z,22.95
2017-06-14T13:58:04.449Z,22.98
2017-06-14T13:59:18.495Z,22.98
2017-06-14T14:00:34.320Z,22.98
2017-06-14T14:01:49.831Z,22.98
2017-06-14T14:03:05.305Z,23.01
2017-06-14T14:04:20.825Z,23.03
2017-06-14T14:05:36.260Z,22.96
2017-06-14T14:06:50.489Z,23.08
2017-06-14T14:08:06.146Z,23.03
2017-06-14T14:09:21.824Z,23.01
2017-06-14T14:10:37.278Z,23.01
2017-06-14T14:11:52.798Z,22.87
2017-06-14T14:13:08.487Z,23.01
2017-06-14T14:14:23.896Z,22.87
2017-06-14T14:15:39.416Z,22.87
2017-06-14T14:16:55.054Z,22.87
2017-06-14T14:18:09.261Z,22.85
2017-06-14T14:19:24.809Z,22.95
2017-06-14T14:20:40.326Z,22.79
2017-06-14T14:21:54.373Z,22.85
2017-06-14T14:23:09.857Z,22.83
2017-06-14T14:24:25.337Z,22.86
2017-06-14T14:25:38.200Z,23.01
2017-06-14T14:26:53.864Z,23.01
2017-06-14T14:28:09.345Z,23.01
2017-06-14T14:29:24.957Z,22.86
2017-06-14T14:30:40.384Z,22.87
2017-06-14T14:31:55.905Z,22.87
2017-06-14T14:33:10.139Z,22.85
2017-06-14T14:34:25.704Z,22.82
2017-06-14T14:35:41.184Z,22.76
2017-06-14T14:36:56.629Z,22.79
2017-06-14T14:38:12.170Z,22.76
2017-06-14T14:39:27.703Z,22.76
2017-06-14T14:40:43.211Z,22.67
2017-06-14T14:41:58.761Z,22.64
2017-06-14T14:43:14.539Z,22.63
2017-06-14T14:44:30.046Z,22.64
2017-06-14T14:45:45.535Z,22.63
2017-06-14T14:47:01.069Z,22.65
2017-06-14T14:48:16.559Z,22.71
2017-06-14T14:49:32.189Z,22.7
2017-06-14T14:50:46.278Z,22.67
2017-06-14T14:52:01.810Z,22.68
2017-06-14T14:53:17.311Z,22.63
2017-06-14T14:54:32.976Z,22.63
2017-06-14T14:55:47.177Z,22.63
2017-06-14T14:57:02.785Z,22.63
2017-06-14T14:58:31.842Z,22.61
2017-06-14T14:59:47.296Z,22.63
2017-06-14T15:01:02.755Z,22.57
2017-06-14T15:02:18.312Z,22.64
2017-06-14T15:03:33.821Z,22.63
2017-06-14T15:04:49.295Z,22.65
2017-06-14T15:06:04.984Z,22.64
2017-06-14T15:07:20.483Z,22.63
2017-06-14T15:08:35.952Z,22.64
2017-06-14T15:09:51.481Z,22.61
2017-06-14T15:11:05.641Z,22.5
2017-06-14T15:12:21.164Z,22.5
2017-06-14T15:13:36.646Z,22.52
2017-06-14T15:14:52.261Z,22.58
2017-06-14T15:16:07.764Z,22.55
2017-06-14T15:17:23.226Z,22.63
2017-06-14T15:18:38.970Z,22.65
2017-06-14T15:19:54.471Z,22.49
2017-06-14T15:21:09.874Z,22.61
2017-06-14T15:22:25.472Z,22.65
2017-06-14T15:23:39.495Z,22.63
2017-06-14T15:24:54.978Z,22.64
2017-06-14T15:26:10.514Z,22.55
2017-06-14T15:27:26.002Z,22.61
2017-06-14T15:28:41.521Z,22.48
2017-06-14T15:29:57.311Z,22.53
2017-06-14T15:31:12.839Z,22.46
2017-06-14T15:32:28.360Z,22.45
2017-06-14T15:33:43.861Z,22.43
2017-06-14T15:34:56.719Z,22.45
2017-06-14T15:36:12.388Z,22.43
2017-06-14T15:37:28.019Z,22.45
2017-06-14T15:38:43.524Z,22.45
2017-06-14T15:39:58.994Z,22.45
2017-06-14T15:41:14.721Z,22.49
2017-06-14T15:42:30.437Z,22.45
2017-06-14T15:43:45.716Z,22.42
2017-06-14T15:45:01.193Z,22.46
2017-06-14T15:46:16.939Z,22.42
2017-06-14T15:47:32.448Z,22.45
2017-06-14T15:48:47.965Z,22.46
2017-06-14T15:50:03.865Z,22.45
2017-06-14T15:51:19.346Z,22.48
2017-06-14T15:52:34.857Z,22.34
2017-06-14T15:53:50.104Z,22.3
2017-06-14T15:55:05.628Z,22.43
2017-06-14T15:56:21.183Z,22.46
2017-06-14T15:57:36.696Z,22.42
2017-06-14T15:58:52.241Z,22.42
2017-06-14T16:00:07.705Z,22.39
2017-06-14T16:01:23.187Z,22.48
2017-06-14T16:02:38.657Z,22.39
2017-06-14T16:03:51.392Z,22.45
2017-06-14T16:05:06.892Z,22.43
2017-06-14T16:06:22.479Z,22.46
2017-06-14T16:07:38.162Z,22.46
2017-06-14T16:08:53.633Z,22.4
2017-06-14T16:10:09.142Z,22.4
2017-06-14T16:11:24.666Z,22.43
2017-06-14T16:12:40.226Z,22.43
2017-06-14T16:13:55.724Z,22.34
2017-06-14T16:15:11.374Z,22.28
2017-06-14T16:16:26.885Z,22.34
2017-06-14T16:17:42.385Z,22.43